sensor_id;sensor_type;location;lat;lon;timestamp;P1;P2;P0
62599;PMS7003;48671;48.922;2.346;2023-11-19T00:00:25;0.00;0.00;0.00
62599;PMS7003;48671;48.922;2.346;2023-11-19T00:02:50;0.00;0.00;0.00
62599;PMS7003;48671;48.922;2.346;2023-11-19T00:05:16;1.00;1.00;0.25
62599;PMS7003;48671;48.922;2.346;2023-11-19T00:07:41;1.00;0.50;0.50
62599;PMS7003;48671;48.922;2.346;2023-11-19T00:10:08;0.00;0.00;0.00
62599;PMS7003;48671;48.922;2.346;2023-11-19T00:12:38;0.00;0.00;0.00
62599;PMS7003;48671;48.922;2.346;2023-11-19T00:15:05;0.00;0.00;0.00
62599;PMS7003;48671;48.922;2.346;2023-11-19T00:17:31;1.00;1.00;1.00
62599;PMS7003;48671;48.922;2.346;2023-11-19T00:19:57;1.00;1.00;0.00
62599;PMS7003;48671;48.922;2.346;2023-11-19T00:22:22;0.75;0.75;0.00
62599;PMS7003;48671;48.922;2.346;2023-11-19T00:24:48;1.75;1.00;1.00
62599;PMS7003;48671;48.922;2.346;2023-11-19T00:27:13;2.00;1.75;1.00
62599;PMS7003;48671;48.922;2.346;2023-11-19T00:29:38;0.00;0.00;0.00
62599;PMS7003;48671;48.922;2.346;2023-11-19T00:32:04;4.25;1.00;1.00
62599;PMS7003;48671;48.922;2.346;2023-11-19T00:34:30;0.50;0.50;0.50
62599;PMS7003;48671;48.922;2.346;2023-11-19T00:36:56;0.50;0.50;0.50
62599;PMS7003;48671;48.922;2.346;2023-11-19T00:39:21;0.25;0.00;0.00
62599;PMS7003;48671;48.922;2.346;2023-11-19T00:41:47;0.25;0.25;0.00
62599;PMS7003;48671;48.922;2.346;2023-11-19T00:44:13;0.00;0.00;0.00
62599;PMS7003;48671;48.922;2.346;2023-11-19T00:46:38;4.00;1.00;1.00
62599;PMS7003;48671;48.922;2.346;2023-11-19T00:49:04;1.25;1.25;0.75
62599;PMS7003;48671;48.922;2.346;2023-11-19T00:51:29;3.50;1.00;0.00
62599;PMS7003;48671;48.922;2.346;2023-11-19T00:53:56;1.00;0.00;0.00
62599;PMS7003;48671;48.922;2.346;2023-11-19T00:56:22;0.00;0.00;0.00
62599;PMS7003;48671;48.922;2.346;2023-11-19T00:58:47;0.00;0.00;0.00
62599;PMS7003;48671;48.922;2.346;2023-11-19T01:01:13;0.00;0.00;0.00
62599;PMS7003;48671;48.922;2.346;2023-11-19T01:03:38;2.25;1.00;0.00
62599;PMS7003;48671;48.922;2.346;2023-11-19T01:06:03;1.00;1.00;0.00
62599;PMS7003;48671;48.922;2.346;2023-11-19T01:08:29;1.00;0.00;0.00
62599;PMS7003;48671;48.922;2.346;2023-11-19T01:10:55;1.00;1.00;0.00
62599;PMS7003;48671;48.922;2.346;2023-11-19T01:13:20;0.00;0.00;0.00
62599;PMS7003;48671;48.922;2.346;2023-11-19T01:15:45;0.00;0.00;0.00
62599;PMS7003;48671;48.922;2.346;2023-11-19T01:18:12;1.00;1.00;0.00
62599;PMS7003;48671;48.922;2.346;2023-11-19T01:20:37;1.00;1.00;0.00
62599;PMS7003;48671;48.922;2.346;2023-11-19T01:23:03;4.00;0.00;0.00
62599;PMS7003;48671;48.922;2.346;2023-11-19T01:25:29;0.00;0.00;0.00
62599;PMS7003;48671;48.922;2.346;2023-11-19T01:27:54;1.00;0.00;0.00
62599;PMS7003;48671;48.922;2.346;2023-11-19T01:30:21;0.75;0.00;0.00
62599;PMS7003;48671;48.922;2.346;2023-11-19T01:32:47;0.50;0.50;0.50
62599;PMS7003;48671;48.922;2.346;2023-11-19T01:35:12;0.75;0.75;0.00
62599;PMS7003;48671;48.922;2.346;2023-11-19T01:37:37;1.00;0.00;0.00
62599;PMS7003;48671;48.922;2.346;2023-11-19T01:40:03;0.00;0.00;0.00
62599;PMS7003;48671;48.922;2.346;2023-11-19T01:42:40;0.50;0.00;0.00
62599;PMS7003;48671;48.922;2.346;2023-11-19T01:45:06;2.00;1.25;0.25
62599;PMS7003;48671;48.922;2.346;2023-11-19T01:47:35;1.50;0.00;0.00
62599;PMS7003;48671;48.922;2.346;2023-11-19T01:50:01;0.00;0.00;0.00
62599;PMS7003;48671;48.922;2.346;2023-11-19T01:52:31;0.00;0.00;0.00
62599;PMS7003;48671;48.922;2.346;2023-11-19T01:54:59;0.50;0.00;0.00
62599;PMS7003;48671;48.922;2.346;2023-11-19T01:57:25;0.00;0.00;0.00
62599;PMS7003;48671;48.922;2.346;2023-11-19T01:59:51;1.00;0.00;0.00
62599;PMS7003;48671;48.922;2.346;2023-11-19T02:02:17;0.00;0.00;0.00
62599;PMS7003;48671;48.922;2.346;2023-11-19T02:04:45;0.75;0.25;0.00
62599;PMS7003;48671;48.922;2.346;2023-11-19T02:07:13;0.00;0.00;0.00
62599;PMS7003;48671;48.922;2.346;2023-11-19T02:09:41;0.00;0.00;0.00
62599;PMS7003;48671;48.922;2.346;2023-11-19T02:12:07;0.00;0.00;0.00
62599;PMS7003;48671;48.922;2.346;2023-11-19T02:14:34;0.00;0.00;0.00
62599;PMS7003;48671;48.922;2.346;2023-11-19T02:16:59;0.00;0.00;0.00
62599;PMS7003;48671;48.922;2.346;2023-11-19T02:19:25;2.00;0.75;0.00
62599;PMS7003;48671;48.922;2.346;2023-11-19T02:21:50;0.00;0.00;0.00
62599;PMS7003;48671;48.922;2.346;2023-11-19T02:24:15;2.00;0.25;0.00
62599;PMS7003;48671;48.922;2.346;2023-11-19T02:29:30;1.00;1.00;0.25
62599;PMS7003;48671;48.922;2.346;2023-11-19T02:31:56;2.50;0.00;0.00
62599;PMS7003;48671;48.922;2.346;2023-11-19T02:34:21;1.00;0.00;0.00
62599;PMS7003;48671;48.922;2.346;2023-11-19T02:36:47;2.50;0.00;0.00
62599;PMS7003;48671;48.922;2.346;2023-11-19T02:39:12;2.00;1.00;0.00
62599;PMS7003;48671;48.922;2.346;2023-11-19T02:41:38;2.00;0.75;0.00
62599;PMS7003;48671;48.922;2.346;2023-11-19T02:44:05;1.00;0.00;0.00
62599;PMS7003;48671;48.922;2.346;2023-11-19T02:46:31;0.00;0.00;0.00
62599;PMS7003;48671;48.922;2.346;2023-11-19T02:48:57;1.00;0.75;0.00
62599;PMS7003;48671;48.922;2.346;2023-11-19T02:51:22;0.00;0.00;0.00
62599;PMS7003;48671;48.922;2.346;2023-11-19T02:53:47;1.00;1.00;0.00
62599;PMS7003;48671;48.922;2.346;2023-11-19T02:56:13;1.00;1.00;0.25
62599;PMS7003;48671;48.922;2.346;2023-11-19T02:58:50;1.00;0.00;0.00
62599;PMS7003;48671;48.922;2.346;2023-11-19T03:01:21;1.25;1.25;0.75
62599;PMS7003;48671;48.922;2.346;2023-11-19T03:03:54;2.00;1.50;0.50
62599;PMS7003;48671;48.922;2.346;2023-11-19T03:06:20;1.00;1.00;0.00
62599;PMS7003;48671;48.922;2.346;2023-11-19T03:08:46;0.75;0.75;0.00
62599;PMS7003;48671;48.922;2.346;2023-11-19T03:11:13;0.00;0.00;0.00
62599;PMS7003;48671;48.922;2.346;2023-11-19T03:13:38;1.50;1.00;1.00
62599;PMS7003;48671;48.922;2.346;2023-11-19T03:16:04;1.75;1.00;0.00
62599;PMS7003;48671;48.922;2.346;2023-11-19T03:18:29;0.00;0.00;0.00
62599;PMS7003;48671;48.922;2.346;2023-11-19T03:20:55;1.50;0.00;0.00
62599;PMS7003;48671;48.922;2.346;2023-11-19T03:23:20;0.00;0.00;0.00
62599;PMS7003;48671;48.922;2.346;2023-11-19T03:25:45;1.25;1.25;0.75
62599;PMS7003;48671;48.922;2.346;2023-11-19T03:28:11;1.25;0.75;0.00
62599;PMS7003;48671;48.922;2.346;2023-11-19T03:30:36;0.00;0.00;0.00
62599;PMS7003;48671;48.922;2.346;2023-11-19T03:33:02;0.00;0.00;0.00
62599;PMS7003;48671;48.922;2.346;2023-11-19T03:35:28;1.00;1.00;0.00
62599;PMS7003;48671;48.922;2.346;2023-11-19T03:37:53;1.00;1.00;0.00
62599;PMS7003;48671;48.922;2.346;2023-11-19T03:40:18;1.50;0.00;0.00
62599;PMS7003;48671;48.922;2.346;2023-11-19T03:42:47;0.50;0.00;0.00
62599;PMS7003;48671;48.922;2.346;2023-11-19T03:45:12;1.00;1.00;1.00
62599;PMS7003;48671;48.922;2.346;2023-11-19T03:47:38;2.00;0.00;0.00
62599;PMS7003;48671;48.922;2.346;2023-11-19T03:50:04;1.00;1.00;1.00
62599;PMS7003;48671;48.922;2.346;2023-11-19T03:52:30;1.50;0.75;0.00
62599;PMS7003;48671;48.922;2.346;2023-11-19T03:54:55;1.00;1.00;0.75
62599;PMS7003;48671;48.922;2.346;2023-11-19T03:57:22;0.50;0.50;0.50
62599;PMS7003;48671;48.922;2.346;2023-11-19T03:59:48;1.00;1.00;0.25
62599;PMS7003;48671;48.922;2.346;2023-11-19T04:02:14;1.50;1.00;1.00
62599;PMS7003;48671;48.922;2.346;2023-11-19T04:04:40;4.00;1.50;1.00
62599;PMS7003;48671;48.922;2.346;2023-11-19T04:07:06;2.25;1.00;0.50
62599;PMS7003;48671;48.922;2.346;2023-11-19T04:09:31;5.50;0.75;0.75
62599;PMS7003;48671;48.922;2.346;2023-11-19T04:11:58;0.25;0.25;0.00
62599;PMS7003;48671;48.922;2.346;2023-11-19T04:14:24;0.00;0.00;0.00
62599;PMS7003;48671;48.922;2.346;2023-11-19T04:16:49;2.00;1.00;0.00
62599;PMS7003;48671;48.922;2.346;2023-11-19T04:19:17;4.00;0.50;0.00
62599;PMS7003;48671;48.922;2.346;2023-11-19T04:21:43;1.00;1.00;0.00
62599;PMS7003;48671;48.922;2.346;2023-11-19T04:24:09;2.50;0.50;0.00
62599;PMS7003;48671;48.922;2.346;2023-11-19T04:26:41;0.75;0.75;0.00
62599;PMS7003;48671;48.922;2.346;2023-11-19T04:29:11;1.00;1.00;1.00
62599;PMS7003;48671;48.922;2.346;2023-11-19T04:31:37;1.75;1.75;1.00
62599;PMS7003;48671;48.922;2.346;2023-11-19T04:34:03;2.75;1.00;1.00
62599;PMS7003;48671;48.922;2.346;2023-11-19T04:36:28;2.25;1.50;1.00
62599;PMS7003;48671;48.922;2.346;2023-11-19T04:38:54;1.00;1.00;1.00
62599;PMS7003;48671;48.922;2.346;2023-11-19T04:41:20;2.00;1.00;1.00
62599;PMS7003;48671;48.922;2.346;2023-11-19T04:43:45;2.00;1.00;1.00
62599;PMS7003;48671;48.922;2.346;2023-11-19T04:46:10;2.00;1.00;1.00
62599;PMS7003;48671;48.922;2.346;2023-11-19T04:48:36;5.00;2.00;0.00
62599;PMS7003;48671;48.922;2.346;2023-11-19T04:51:01;4.33;2.00;1.00
62599;PMS7003;48671;48.922;2.346;2023-11-19T04:53:29;1.50;1.50;1.00
62599;PMS7003;48671;48.922;2.346;2023-11-19T04:55:55;3.50;2.00;1.00
62599;PMS7003;48671;48.922;2.346;2023-11-19T04:58:20;4.33;2.33;1.00
62599;PMS7003;48671;48.922;2.346;2023-11-19T05:00:45;1.00;1.00;0.50
62599;PMS7003;48671;48.922;2.346;2023-11-19T05:03:11;1.00;0.00;0.00
62599;PMS7003;48671;48.922;2.346;2023-11-19T05:05:36;3.00;1.25;0.00
62599;PMS7003;48671;48.922;2.346;2023-11-19T05:08:02;2.00;0.00;0.00
62599;PMS7003;48671;48.922;2.346;2023-11-19T05:10:27;0.50;0.50;0.00
62599;PMS7003;48671;48.922;2.346;2023-11-19T05:12:52;0.00;0.00;0.00
62599;PMS7003;48671;48.922;2.346;2023-11-19T05:15:18;1.00;1.00;1.00
62599;PMS7003;48671;48.922;2.346;2023-11-19T05:17:43;0.00;0.00;0.00
62599;PMS7003;48671;48.922;2.346;2023-11-19T05:20:08;1.00;1.00;0.00
62599;PMS7003;48671;48.922;2.346;2023-11-19T05:22:38;2.50;1.00;0.00
62599;PMS7003;48671;48.922;2.346;2023-11-19T05:25:08;0.00;0.00;0.00
62599;PMS7003;48671;48.922;2.346;2023-11-19T05:27:34;1.75;1.00;0.00
62599;PMS7003;48671;48.922;2.346;2023-11-19T05:30:01;3.75;0.75;0.00
62599;PMS7003;48671;48.922;2.346;2023-11-19T05:32:26;0.00;0.00;0.00
62599;PMS7003;48671;48.922;2.346;2023-11-19T05:34:52;3.00;1.75;1.00
62599;PMS7003;48671;48.922;2.346;2023-11-19T05:37:17;2.50;1.00;0.25
62599;PMS7003;48671;48.922;2.346;2023-11-19T05:39:44;0.50;0.00;0.00
62599;PMS7003;48671;48.922;2.346;2023-11-19T05:42:10;0.75;0.50;0.00
62599;PMS7003;48671;48.922;2.346;2023-11-19T05:44:35;1.00;0.50;0.00
62599;PMS7003;48671;48.922;2.346;2023-11-19T05:47:01;2.00;0.00;0.00
62599;PMS7003;48671;48.922;2.346;2023-11-19T05:49:27;3.00;1.50;0.00
62599;PMS7003;48671;48.922;2.346;2023-11-19T05:51:52;7.67;2.00;1.67
62599;PMS7003;48671;48.922;2.346;2023-11-19T05:54:20;6.50;1.00;0.00
62599;PMS7003;48671;48.922;2.346;2023-11-19T05:56:49;4.25;1.00;1.00
62599;PMS7003;48671;48.922;2.346;2023-11-19T05:59:14;0.75;0.75;0.25
62599;PMS7003;48671;48.922;2.346;2023-11-19T06:01:42;2.00;1.00;0.75
62599;PMS7003;48671;48.922;2.346;2023-11-19T06:04:09;0.25;0.00;0.00
62599;PMS7003;48671;48.922;2.346;2023-11-19T06:06:35;3.00;0.75;0.00
62599;PMS7003;48671;48.922;2.346;2023-11-19T06:09:00;2.00;1.00;1.00
62599;PMS7003;48671;48.922;2.346;2023-11-19T06:11:26;0.75;0.75;0.00
62599;PMS7003;48671;48.922;2.346;2023-11-19T06:13:52;0.50;0.00;0.00
62599;PMS7003;48671;48.922;2.346;2023-11-19T06:16:17;1.00;0.25;0.25
62599;PMS7003;48671;48.922;2.346;2023-11-19T06:18:43;3.00;0.50;0.00
62599;PMS7003;48671;48.922;2.346;2023-11-19T06:21:09;1.75;0.00;0.00
62599;PMS7003;48671;48.922;2.346;2023-11-19T06:23:34;1.50;1.00;0.00
62599;PMS7003;48671;48.922;2.346;2023-11-19T06:26:00;2.67;1.00;0.00
62599;PMS7003;48671;48.922;2.346;2023-11-19T06:28:25;2.33;1.00;1.00
62599;PMS7003;48671;48.922;2.346;2023-11-19T06:30:50;1.00;0.75;0.50
62599;PMS7003;48671;48.922;2.346;2023-11-19T06:33:16;1.75;1.00;1.00
62599;PMS7003;48671;48.922;2.346;2023-11-19T06:35:41;4.50;1.75;1.00
62599;PMS7003;48671;48.922;2.346;2023-11-19T06:38:07;6.25;1.00;1.00
62599;PMS7003;48671;48.922;2.346;2023-11-19T06:40:32;1.50;1.50;0.50
62599;PMS7003;48671;48.922;2.346;2023-11-19T06:43:06;1.50;0.50;0.00
62599;PMS7003;48671;48.922;2.346;2023-11-19T06:45:33;1.00;1.00;0.75
62599;PMS7003;48671;48.922;2.346;2023-11-19T06:48:02;2.00;1.25;0.25
62599;PMS7003;48671;48.922;2.346;2023-11-19T06:50:29;3.25;0.50;0.00
62599;PMS7003;48671;48.922;2.346;2023-11-19T06:52:54;3.00;2.00;1.00
62599;PMS7003;48671;48.922;2.346;2023-11-19T06:55:19;1.25;1.00;0.25
62599;PMS7003;48671;48.922;2.346;2023-11-19T06:57:45;2.67;1.00;1.00
62599;PMS7003;48671;48.922;2.346;2023-11-19T07:00:10;1.25;1.25;1.00
62599;PMS7003;48671;48.922;2.346;2023-11-19T07:02:36;3.00;1.00;0.00
62599;PMS7003;48671;48.922;2.346;2023-11-19T07:05:02;1.50;0.25;0.00
62599;PMS7003;48671;48.922;2.346;2023-11-19T07:07:30;0.25;0.25;0.25
62599;PMS7003;48671;48.922;2.346;2023-11-19T07:09:55;2.25;2.25;1.00
62599;PMS7003;48671;48.922;2.346;2023-11-19T07:12:21;3.00;1.00;1.00
62599;PMS7003;48671;48.922;2.346;2023-11-19T07:14:46;2.00;2.00;1.00
62599;PMS7003;48671;48.922;2.346;2023-11-19T07:17:11;7.75;2.00;1.00
62599;PMS7003;48671;48.922;2.346;2023-11-19T07:19:37;2.00;2.00;1.00
62599;PMS7003;48671;48.922;2.346;2023-11-19T07:22:03;1.00;1.00;0.25
62599;PMS7003;48671;48.922;2.346;2023-11-19T07:24:29;2.75;2.00;1.00
62599;PMS7003;48671;48.922;2.346;2023-11-19T07:26:54;2.50;1.00;0.00
62599;PMS7003;48671;48.922;2.346;2023-11-19T07:29:19;3.00;1.00;1.00
62599;PMS7003;48671;48.922;2.346;2023-11-19T07:31:47;2.75;1.50;1.00
62599;PMS7003;48671;48.922;2.346;2023-11-19T07:34:14;2.75;2.00;2.00
62599;PMS7003;48671;48.922;2.346;2023-11-19T07:36:39;2.25;2.25;1.25
62599;PMS7003;48671;48.922;2.346;2023-11-19T07:39:05;5.50;3.00;2.00
62599;PMS7003;48671;48.922;2.346;2023-11-19T07:41:30;2.00;1.00;0.50
62599;PMS7003;48671;48.922;2.346;2023-11-19T07:43:56;4.00;2.50;2.00
62599;PMS7003;48671;48.922;2.346;2023-11-19T07:46:22;1.75;1.75;1.25
62599;PMS7003;48671;48.922;2.346;2023-11-19T07:48:47;2.00;2.00;1.50
62599;PMS7003;48671;48.922;2.346;2023-11-19T07:51:13;3.75;2.00;1.00
62599;PMS7003;48671;48.922;2.346;2023-11-19T07:53:39;3.50;2.50;1.00
62599;PMS7003;48671;48.922;2.346;2023-11-19T07:56:05;4.75;2.00;1.00
62599;PMS7003;48671;48.922;2.346;2023-11-19T07:58:31;3.75;2.00;2.00
62599;PMS7003;48671;48.922;2.346;2023-11-19T08:00:57;3.50;2.00;2.00
62599;PMS7003;48671;48.922;2.346;2023-11-19T08:03:22;3.50;2.00;1.75
62599;PMS7003;48671;48.922;2.346;2023-11-19T08:05:47;4.75;3.00;1.75
62599;PMS7003;48671;48.922;2.346;2023-11-19T08:08:13;7.00;2.25;1.25
62599;PMS7003;48671;48.922;2.346;2023-11-19T08:10:38;7.75;3.00;1.75
62599;PMS7003;48671;48.922;2.346;2023-11-19T08:13:04;7.50;4.25;3.00
62599;PMS7003;48671;48.922;2.346;2023-11-19T08:15:30;3.50;3.25;2.00
62599;PMS7003;48671;48.922;2.346;2023-11-19T08:17:55;5.00;2.00;2.00
62599;PMS7003;48671;48.922;2.346;2023-11-19T08:20:21;4.50;3.00;2.00
62599;PMS7003;48671;48.922;2.346;2023-11-19T08:22:47;3.50;2.75;1.75
62599;PMS7003;48671;48.922;2.346;2023-11-19T08:25:15;4.00;1.00;1.00
62599;PMS7003;48671;48.922;2.346;2023-11-19T08:27:40;7.25;2.25;1.75
62599;PMS7003;48671;48.922;2.346;2023-11-19T08:30:06;5.50;2.00;2.00
62599;PMS7003;48671;48.922;2.346;2023-11-19T08:32:32;1.00;1.00;0.00
62599;PMS7003;48671;48.922;2.346;2023-11-19T08:35:02;3.25;1.75;0.50
62599;PMS7003;48671;48.922;2.346;2023-11-19T08:37:28;5.25;2.00;1.00
62599;PMS7003;48671;48.922;2.346;2023-11-19T08:39:53;2.00;1.00;0.25
62599;PMS7003;48671;48.922;2.346;2023-11-19T08:42:18;1.25;0.75;0.00
62599;PMS7003;48671;48.922;2.346;2023-11-19T08:44:44;3.00;2.00;1.00
62599;PMS7003;48671;48.922;2.346;2023-11-19T08:47:15;5.25;2.25;1.00
62599;PMS7003;48671;48.922;2.346;2023-11-19T08:49:42;3.00;1.00;0.50
62599;PMS7003;48671;48.922;2.346;2023-11-19T08:52:08;7.00;3.25;1.75
62599;PMS7003;48671;48.922;2.346;2023-11-19T08:54:34;6.50;2.00;1.00
62599;PMS7003;48671;48.922;2.346;2023-11-19T08:56:59;2.00;2.00;1.00
62599;PMS7003;48671;48.922;2.346;2023-11-19T08:59:25;2.00;1.50;1.00
62599;PMS7003;48671;48.922;2.346;2023-11-19T09:01:50;5.25;2.50;1.25
62599;PMS7003;48671;48.922;2.346;2023-11-19T09:04:16;8.50;1.00;1.00
62599;PMS7003;48671;48.922;2.346;2023-11-19T09:06:41;2.50;2.00;1.00
62599;PMS7003;48671;48.922;2.346;2023-11-19T09:09:07;1.50;1.00;1.00
62599;PMS7003;48671;48.922;2.346;2023-11-19T09:11:33;2.75;2.25;1.00
62599;PMS7003;48671;48.922;2.346;2023-11-19T09:13:58;3.00;1.75;0.25
62599;PMS7003;48671;48.922;2.346;2023-11-19T09:16:24;6.25;1.25;1.00
62599;PMS7003;48671;48.922;2.346;2023-11-19T09:18:50;2.75;1.50;1.00
62599;PMS7003;48671;48.922;2.346;2023-11-19T09:21:15;3.00;1.67;1.00
62599;PMS7003;48671;48.922;2.346;2023-11-19T09:23:40;8.33;2.00;1.00
62599;PMS7003;48671;48.922;2.346;2023-11-19T09:26:06;5.50;2.25;1.00
62599;PMS7003;48671;48.922;2.346;2023-11-19T09:28:33;4.00;2.50;2.50
62599;PMS7003;48671;48.922;2.346;2023-11-19T09:31:00;4.25;3.00;2.00
62599;PMS7003;48671;48.922;2.346;2023-11-19T09:33:32;4.50;2.50;2.00
62599;PMS7003;48671;48.922;2.346;2023-11-19T09:35:59;2.00;1.75;0.75
62599;PMS7003;48671;48.922;2.346;2023-11-19T09:38:25;6.75;2.00;0.00
62599;PMS7003;48671;48.922;2.346;2023-11-19T09:40:50;4.75;1.00;1.00
62599;PMS7003;48671;48.922;2.346;2023-11-19T09:43:15;5.00;4.75;2.00
62599;PMS7003;48671;48.922;2.346;2023-11-19T09:45:48;1.75;1.00;0.50
62599;PMS7003;48671;48.922;2.346;2023-11-19T09:48:17;5.00;2.00;1.00
62599;PMS7003;48671;48.922;2.346;2023-11-19T09:50:44;3.00;3.00;1.50
62599;PMS7003;48671;48.922;2.346;2023-11-19T09:53:11;3.00;1.75;1.00
62599;PMS7003;48671;48.922;2.346;2023-11-19T09:55:37;3.00;2.50;1.00
62599;PMS7003;48671;48.922;2.346;2023-11-19T09:58:02;4.50;2.00;0.75
62599;PMS7003;48671;48.922;2.346;2023-11-19T10:00:28;4.25;2.00;1.00
62599;PMS7003;48671;48.922;2.346;2023-11-19T10:02:55;5.00;3.00;1.00
62599;PMS7003;48671;48.922;2.346;2023-11-19T10:05:22;3.75;2.00;2.00
62599;PMS7003;48671;48.922;2.346;2023-11-19T10:07:49;3.75;2.00;1.00
62599;PMS7003;48671;48.922;2.346;2023-11-19T10:10:14;4.50;1.50;1.00
62599;PMS7003;48671;48.922;2.346;2023-11-19T10:12:43;2.25;2.25;1.00
62599;PMS7003;48671;48.922;2.346;2023-11-19T10:15:11;3.50;2.00;1.00
62599;PMS7003;48671;48.922;2.346;2023-11-19T10:17:51;2.25;1.00;0.00
62599;PMS7003;48671;48.922;2.346;2023-11-19T10:20:20;4.50;2.00;1.00
62599;PMS7003;48671;48.922;2.346;2023-11-19T10:22:45;4.67;2.00;1.00
62599;PMS7003;48671;48.922;2.346;2023-11-19T10:28:05;4.00;2.75;1.25
62599;PMS7003;48671;48.922;2.346;2023-11-19T10:30:31;3.00;2.00;1.00
62599;PMS7003;48671;48.922;2.346;2023-11-19T10:33:05;3.75;3.75;2.00
62599;PMS7003;48671;48.922;2.346;2023-11-19T10:35:56;4.50;3.00;1.00
62599;PMS7003;48671;48.922;2.346;2023-11-19T10:38:24;2.50;2.00;1.75
62599;PMS7003;48671;48.922;2.346;2023-11-19T10:40:51;9.25;2.25;0.75
62599;PMS7003;48671;48.922;2.346;2023-11-19T10:43:17;2.00;2.00;1.00
62599;PMS7003;48671;48.922;2.346;2023-11-19T10:45:43;2.75;2.00;1.00
62599;PMS7003;48671;48.922;2.346;2023-11-19T10:48:08;6.50;3.25;2.00
62599;PMS7003;48671;48.922;2.346;2023-11-19T10:50:35;2.00;1.00;0.00
62599;PMS7003;48671;48.922;2.346;2023-11-19T10:53:02;4.00;1.50;1.00
62599;PMS7003;48671;48.922;2.346;2023-11-19T10:55:32;8.25;3.00;1.75
62599;PMS7003;48671;48.922;2.346;2023-11-19T10:58:00;8.25;3.25;1.25
62599;PMS7003;48671;48.922;2.346;2023-11-19T11:00:37;3.50;2.00;1.00
62599;PMS7003;48671;48.922;2.346;2023-11-19T11:03:27;6.25;2.00;1.75
62599;PMS7003;48671;48.922;2.346;2023-11-19T11:05:57;5.00;1.75;0.25
62599;PMS7003;48671;48.922;2.346;2023-11-19T11:08:23;5.00;2.25;0.50
62599;PMS7003;48671;48.922;2.346;2023-11-19T11:10:52;5.00;1.00;1.00
62599;PMS7003;48671;48.922;2.346;2023-11-19T11:13:18;12.00;3.00;2.00
62599;PMS7003;48671;48.922;2.346;2023-11-19T11:15:44;3.00;2.25;0.25
62599;PMS7003;48671;48.922;2.346;2023-11-19T11:18:13;5.25;3.00;1.00
62599;PMS7003;48671;48.922;2.346;2023-11-19T11:20:39;3.00;3.00;1.00
62599;PMS7003;48671;48.922;2.346;2023-11-19T11:28:56;2.75;2.00;1.00
62599;PMS7003;48671;48.922;2.346;2023-11-19T11:31:48;6.00;2.75;1.00
62599;PMS7003;48671;48.922;2.346;2023-11-19T11:37:21;5.00;3.75;1.50
62599;PMS7003;48671;48.922;2.346;2023-11-19T11:39:56;4.50;1.50;1.00
62599;PMS7003;48671;48.922;2.346;2023-11-19T11:48:16;6.25;4.00;1.00
62599;PMS7003;48671;48.922;2.346;2023-11-19T11:50:23;4.25;3.00;2.00
62599;PMS7003;48671;48.922;2.346;2023-11-19T11:57:51;5.50;2.50;1.00
62599;PMS7003;48671;48.922;2.346;2023-11-19T12:02:55;7.75;4.00;2.00
62599;PMS7003;48671;48.922;2.346;2023-11-19T12:05:21;2.75;2.25;1.00
62599;PMS7003;48671;48.922;2.346;2023-11-19T12:07:56;3.25;1.75;1.00
62599;PMS7003;48671;48.922;2.346;2023-11-19T12:10:26;4.00;2.00;1.00
62599;PMS7003;48671;48.922;2.346;2023-11-19T12:13:01;5.75;3.00;1.50
62599;PMS7003;48671;48.922;2.346;2023-11-19T12:15:27;2.00;1.75;0.00
62599;PMS7003;48671;48.922;2.346;2023-11-19T12:17:53;5.75;3.00;1.00
62599;PMS7003;48671;48.922;2.346;2023-11-19T12:20:23;3.00;1.25;0.25
62599;PMS7003;48671;48.922;2.346;2023-11-19T12:22:49;2.00;2.00;1.00
62599;PMS7003;48671;48.922;2.346;2023-11-19T12:25:16;6.00;3.00;2.00
62599;PMS7003;48671;48.922;2.346;2023-11-19T12:27:43;2.75;2.75;1.00
62599;PMS7003;48671;48.922;2.346;2023-11-19T12:30:10;4.50;2.00;1.00
62599;PMS7003;48671;48.922;2.346;2023-11-19T12:32:43;3.25;1.25;1.00
62599;PMS7003;48671;48.922;2.346;2023-11-19T12:35:10;3.25;3.00;1.25
62599;PMS7003;48671;48.922;2.346;2023-11-19T12:37:45;5.50;2.50;1.00
62599;PMS7003;48671;48.922;2.346;2023-11-19T12:40:22;10.00;4.00;2.00
62599;PMS7003;48671;48.922;2.346;2023-11-19T12:42:49;9.25;1.75;1.00
62599;PMS7003;48671;48.922;2.346;2023-11-19T12:45:18;7.25;1.75;1.00
62599;PMS7003;48671;48.922;2.346;2023-11-19T12:47:45;4.75;3.00;1.25
62599;PMS7003;48671;48.922;2.346;2023-11-19T12:50:12;7.50;2.00;1.00
62599;PMS7003;48671;48.922;2.346;2023-11-19T12:52:38;7.75;3.50;1.75
62599;PMS7003;48671;48.922;2.346;2023-11-19T12:55:04;3.75;2.00;1.00
62599;PMS7003;48671;48.922;2.346;2023-11-19T12:57:48;4.00;2.75;1.00
62599;PMS7003;48671;48.922;2.346;2023-11-19T13:00:20;11.50;3.00;2.00
62599;PMS7003;48671;48.922;2.346;2023-11-19T13:02:50;8.50;3.50;2.00
62599;PMS7003;48671;48.922;2.346;2023-11-19T13:05:30;3.00;2.25;1.00
62599;PMS7003;48671;48.922;2.346;2023-11-19T13:08:01;3.50;2.50;2.00
62599;PMS7003;48671;48.922;2.346;2023-11-19T13:10:27;7.50;4.25;1.75
62599;PMS7003;48671;48.922;2.346;2023-11-19T13:13:05;3.50;3.50;2.00
62599;PMS7003;48671;48.922;2.346;2023-11-19T13:15:33;6.50;2.00;1.00
62599;PMS7003;48671;48.922;2.346;2023-11-19T13:17:59;3.25;2.00;1.00
62599;PMS7003;48671;48.922;2.346;2023-11-19T13:20:25;3.25;1.00;0.00
62599;PMS7003;48671;48.922;2.346;2023-11-19T13:23:01;4.75;2.00;1.00
62599;PMS7003;48671;48.922;2.346;2023-11-19T13:25:28;5.00;2.00;1.00
62599;PMS7003;48671;48.922;2.346;2023-11-19T13:27:54;2.25;2.00;1.00
62599;PMS7003;48671;48.922;2.346;2023-11-19T13:30:21;6.00;2.00;0.75
62599;PMS7003;48671;48.922;2.346;2023-11-19T13:32:50;2.25;2.00;1.75
62599;PMS7003;48671;48.922;2.346;2023-11-19T13:35:16;5.25;2.00;1.00
62599;PMS7003;48671;48.922;2.346;2023-11-19T13:37:43;5.50;2.00;1.00
62599;PMS7003;48671;48.922;2.346;2023-11-19T13:40:09;6.00;3.00;1.25
62599;PMS7003;48671;48.922;2.346;2023-11-19T13:42:38;1.25;1.25;0.00
62599;PMS7003;48671;48.922;2.346;2023-11-19T13:45:06;1.00;1.00;1.00
62599;PMS7003;48671;48.922;2.346;2023-11-19T13:47:35;3.00;1.00;0.00
62599;PMS7003;48671;48.922;2.346;2023-11-19T13:50:01;2.00;2.00;1.25
62599;PMS7003;48671;48.922;2.346;2023-11-19T13:52:26;5.00;2.50;1.00
62599;PMS7003;48671;48.922;2.346;2023-11-19T13:54:52;1.50;1.00;0.75
62599;PMS7003;48671;48.922;2.346;2023-11-19T13:57:17;5.25;2.50;1.00
62599;PMS7003;48671;48.922;2.346;2023-11-19T13:59:43;2.25;1.25;0.00
62599;PMS7003;48671;48.922;2.346;2023-11-19T14:02:09;4.50;1.75;0.75
62599;PMS7003;48671;48.922;2.346;2023-11-19T14:04:34;5.50;2.75;1.00
62599;PMS7003;48671;48.922;2.346;2023-11-19T14:07:00;1.50;1.50;0.00
62599;PMS7003;48671;48.922;2.346;2023-11-19T14:09:25;4.00;3.00;1.00
62599;PMS7003;48671;48.922;2.346;2023-11-19T14:11:50;2.00;2.00;1.00
62599;PMS7003;48671;48.922;2.346;2023-11-19T14:14:16;3.00;2.00;1.00
62599;PMS7003;48671;48.922;2.346;2023-11-19T14:16:41;5.50;3.00;0.75
62599;PMS7003;48671;48.922;2.346;2023-11-19T14:19:07;5.75;2.50;1.75
62599;PMS7003;48671;48.922;2.346;2023-11-19T14:21:33;7.25;2.25;2.00
62599;PMS7003;48671;48.922;2.346;2023-11-19T14:23:58;10.00;3.00;0.50
62599;PMS7003;48671;48.922;2.346;2023-11-19T14:26:24;5.75;4.00;1.75
62599;PMS7003;48671;48.922;2.346;2023-11-19T14:28:49;5.00;3.00;1.25
62599;PMS7003;48671;48.922;2.346;2023-11-19T14:31:14;2.75;1.00;1.00
62599;PMS7003;48671;48.922;2.346;2023-11-19T14:33:39;3.25;2.00;1.00
62599;PMS7003;48671;48.922;2.346;2023-11-19T14:36:05;4.00;2.67;1.00
62599;PMS7003;48671;48.922;2.346;2023-11-19T14:38:32;4.75;3.00;2.00
62599;PMS7003;48671;48.922;2.346;2023-11-19T14:40:57;5.50;3.00;1.25
62599;PMS7003;48671;48.922;2.346;2023-11-19T14:43:24;4.75;1.50;1.25
62599;PMS7003;48671;48.922;2.346;2023-11-19T14:45:49;1.75;1.00;0.00
62599;PMS7003;48671;48.922;2.346;2023-11-19T14:48:15;3.75;3.00;1.50